This is the latest recevied weather packets stored in our database for station/object IZ8NVY-10. If no packets are shown the sender has not sent any weather packets the latest 10 day(s).
| Time | Temp. | Humidity | Pressure | Rain* | Wind** | Luminosity | Snow |
|---|---|---|---|---|---|---|---|
| 1777979615 | 26.11° C | 34% | 981 hPa | - | - | - | - |
| 1777976014 | 23.89° C | 43% | 981.1 hPa | - | - | - | - |
| 1777972417 | 23.33° C | 44% | 981.1 hPa | - | - | - | - |
| 1777968814 | 22.22° C | 50% | 981.2 hPa | - | - | - | - |
| 1777965214 | 20.56° C | 52% | 981.2 hPa | - | - | - | - |
| 1777961612 | 18.89° C | 56% | 981.1 hPa | - | - | - | - |
| 1777958012 | 16.67° C | 58% | 980.7 hPa | - | - | - | - |
| 1777954412 | 15° C | 60% | 980.6 hPa | - | - | - | - |
| 1777950814 | 15° C | 60% | 980.7 hPa | - | - | - | - |
| 1777947213 | 14.44° C | 60% | 981 hPa | - | - | - | - |
| 1777943613 | 14.44° C | 61% | 981.4 hPa | - | - | - | - |
| 1777940011 | 13.89° C | 62% | 981.9 hPa | - | - | - | - |
| 1777936410 | 13.89° C | 59% | 981.9 hPa | - | - | - | - |
| 1777932809 | 14.44° C | 59% | 982.4 hPa | - | - | - | - |
| 1777929212 | 15° C | 57% | 982.6 hPa | - | - | - | - |
| 1777925611 | 15.56° C | 54% | 982.6 hPa | - | - | - | - |
| 1777922010 | 17.22° C | 51% | 982.4 hPa | - | - | - | - |
| 1777918409 | 18.89° C | 47% | 981.9 hPa | - | - | - | - |
| 1777914809 | 21.11° C | 44% | 981.7 hPa | - | - | - | - |
| 1777911209 | 22.78° C | 40% | 981.5 hPa | - | - | - | - |
| 1777907610 | 27.22° C | 32% | 981.4 hPa | - | - | - | - |
| 1777904010 | 27.22° C | 32% | 981.6 hPa | - | - | - | - |
| 1777900409 | 29.44° C | 30% | 981.9 hPa | - | - | - | - |
| 1777896808 | 28.33° C | 32% | 982.4 hPa | - | - | - | - |
| 1777893209 | 27.78° C | 37% | 982.7 hPa | - | - | - | - |
* Rain since midnight (hover to see other rain measurements)
** Current wind speed in m/s (hover to see current wind gust speed)